sensor_id;sensor_type;location;lat;lon;timestamp;temperature;humidity
9209;DHT22;4639;48.862;9.188;2023-02-28T00:00:33;-0.30;99.90
9209;DHT22;4639;48.862;9.188;2023-02-28T00:02:59;-0.40;99.90
9209;DHT22;4639;48.862;9.188;2023-02-28T00:05:26;-0.40;99.90
9209;DHT22;4639;48.862;9.188;2023-02-28T00:07:51;-0.50;99.90
9209;DHT22;4639;48.862;9.188;2023-02-28T00:10:19;-0.40;99.90
9209;DHT22;4639;48.862;9.188;2023-02-28T00:12:46;-0.40;99.90
9209;DHT22;4639;48.862;9.188;2023-02-28T00:15:12;-0.40;99.90
9209;DHT22;4639;48.862;9.188;2023-02-28T00:17:38;-0.40;99.90
9209;DHT22;4639;48.862;9.188;2023-02-28T00:20:05;-0.50;99.90
9209;DHT22;4639;48.862;9.188;2023-02-28T00:22:36;-0.40;99.90
9209;DHT22;4639;48.862;9.188;2023-02-28T00:25:02;-0.40;99.90
9209;DHT22;4639;48.862;9.188;2023-02-28T00:27:27;-0.40;99.90
9209;DHT22;4639;48.862;9.188;2023-02-28T00:29:53;-0.40;99.90
9209;DHT22;4639;48.862;9.188;2023-02-28T00:32:19;-0.40;99.90
9209;DHT22;4639;48.862;9.188;2023-02-28T00:34:45;-0.50;99.90
9209;DHT22;4639;48.862;9.188;2023-02-28T00:37:11;-0.50;99.90
9209;DHT22;4639;48.862;9.188;2023-02-28T00:39:40;-0.50;99.90
9209;DHT22;4639;48.862;9.188;2023-02-28T00:42:06;-0.40;99.90
9209;DHT22;4639;48.862;9.188;2023-02-28T00:44:32;-0.40;99.90
9209;DHT22;4639;48.862;9.188;2023-02-28T00:46:58;-0.50;99.90
9209;DHT22;4639;48.862;9.188;2023-02-28T00:49:24;-0.50;99.90
9209;DHT22;4639;48.862;9.188;2023-02-28T00:51:51;-0.50;99.90
9209;DHT22;4639;48.862;9.188;2023-02-28T00:54:17;-0.50;99.90
9209;DHT22;4639;48.862;9.188;2023-02-28T00:56:42;-0.50;99.90
9209;DHT22;4639;48.862;9.188;2023-02-28T00:59:08;-0.50;99.90
9209;DHT22;4639;48.862;9.188;2023-02-28T01:01:34;-0.50;99.90
9209;DHT22;4639;48.862;9.188;2023-02-28T01:04:00;-0.50;99.90
9209;DHT22;4639;48.862;9.188;2023-02-28T01:06:25;-0.50;99.90
9209;DHT22;4639;48.862;9.188;2023-02-28T01:08:51;-0.60;99.90
9209;DHT22;4639;48.862;9.188;2023-02-28T01:11:17;-0.50;99.90
9209;DHT22;4639;48.862;9.188;2023-02-28T01:13:44;-0.50;99.90
9209;DHT22;4639;48.862;9.188;2023-02-28T01:16:10;-0.50;99.90
9209;DHT22;4639;48.862;9.188;2023-02-28T01:18:36;-0.50;99.90
9209;DHT22;4639;48.862;9.188;2023-02-28T01:21:07;-0.50;99.90
9209;DHT22;4639;48.862;9.188;2023-02-28T01:23:33;-0.50;99.90
9209;DHT22;4639;48.862;9.188;2023-02-28T01:26:07;-0.60;99.90
9209;DHT22;4639;48.862;9.188;2023-02-28T01:28:33;-0.60;99.90
9209;DHT22;4639;48.862;9.188;2023-02-28T01:30:59;-0.60;99.90
9209;DHT22;4639;48.862;9.188;2023-02-28T01:33:24;-0.60;99.90
9209;DHT22;4639;48.862;9.188;2023-02-28T01:36:01;-0.60;99.90
9209;DHT22;4639;48.862;9.188;2023-02-28T01:38:27;-0.50;99.90
9209;DHT22;4639;48.862;9.188;2023-02-28T01:40:53;-0.60;99.90
9209;DHT22;4639;48.862;9.188;2023-02-28T01:43:27;-0.60;99.90
9209;DHT22;4639;48.862;9.188;2023-02-28T01:45:55;-0.50;99.90
9209;DHT22;4639;48.862;9.188;2023-02-28T01:48:32;-0.60;99.90
9209;DHT22;4639;48.862;9.188;2023-02-28T01:51:05;-0.60;99.90
9209;DHT22;4639;48.862;9.188;2023-02-28T01:53:42;-0.70;99.90
9209;DHT22;4639;48.862;9.188;2023-02-28T01:56:11;-0.60;99.90
9209;DHT22;4639;48.862;9.188;2023-02-28T01:58:38;-0.70;99.90
9209;DHT22;4639;48.862;9.188;2023-02-28T02:01:04;-0.60;99.90
9209;DHT22;4639;48.862;9.188;2023-02-28T02:03:31;-0.60;99.90
9209;DHT22;4639;48.862;9.188;2023-02-28T02:05:57;-0.70;99.90
9209;DHT22;4639;48.862;9.188;2023-02-28T02:08:28;-0.70;99.90
9209;DHT22;4639;48.862;9.188;2023-02-28T02:10:59;-0.80;99.90
9209;DHT22;4639;48.862;9.188;2023-02-28T02:13:52;-0.80;99.90
9209;DHT22;4639;48.862;9.188;2023-02-28T02:16:43;-0.80;99.90
9209;DHT22;4639;48.862;9.188;2023-02-28T02:33:13;-0.80;99.90
9209;DHT22;4639;48.862;9.188;2023-02-28T02:36:09;-0.80;99.90
9209;DHT22;4639;48.862;9.188;2023-02-28T02:41:38;-0.80;99.90
9209;DHT22;4639;48.862;9.188;2023-02-28T02:44:21;-0.70;99.90
9209;DHT22;4639;48.862;9.188;2023-02-28T02:46:51;-0.60;99.90
9209;DHT22;4639;48.862;9.188;2023-02-28T02:49:34;-0.60;99.90
9209;DHT22;4639;48.862;9.188;2023-02-28T02:52:04;-0.70;99.90
9209;DHT22;4639;48.862;9.188;2023-02-28T02:54:34;-0.80;99.90
9209;DHT22;4639;48.862;9.188;2023-02-28T02:57:05;-0.70;99.90
9209;DHT22;4639;48.862;9.188;2023-02-28T02:59:32;-0.60;99.90
9209;DHT22;4639;48.862;9.188;2023-02-28T03:02:02;-0.60;99.90
9209;DHT22;4639;48.862;9.188;2023-02-28T03:04:33;-0.60;99.90
9209;DHT22;4639;48.862;9.188;2023-02-28T03:07:00;-0.60;99.90
9209;DHT22;4639;48.862;9.188;2023-02-28T03:09:26;-0.70;99.90
9209;DHT22;4639;48.862;9.188;2023-02-28T03:11:54;-0.60;99.90
9209;DHT22;4639;48.862;9.188;2023-02-28T03:19:47;-0.60;99.90
9209;DHT22;4639;48.862;9.188;2023-02-28T03:25:37;-0.40;99.90
9209;DHT22;4639;48.862;9.188;2023-02-28T03:31:27;-0.40;99.90
9209;DHT22;4639;48.862;9.188;2023-02-28T03:34:12;-0.50;99.90
9209;DHT22;4639;48.862;9.188;2023-02-28T03:36:42;-0.50;99.90
9209;DHT22;4639;48.862;9.188;2023-02-28T03:39:17;-0.50;99.90
9209;DHT22;4639;48.862;9.188;2023-02-28T03:41:58;-0.50;99.90
9209;DHT22;4639;48.862;9.188;2023-02-28T03:44:29;-0.60;99.90
9209;DHT22;4639;48.862;9.188;2023-02-28T03:47:12;-0.50;99.90
9209;DHT22;4639;48.862;9.188;2023-02-28T03:50:04;-0.50;99.90
9209;DHT22;4639;48.862;9.188;2023-02-28T03:52:35;-0.50;99.90
9209;DHT22;4639;48.862;9.188;2023-02-28T03:55:05;-0.40;99.90
9209;DHT22;4639;48.862;9.188;2023-02-28T04:00:35;-0.40;99.90
9209;DHT22;4639;48.862;9.188;2023-02-28T04:03:02;-0.40;99.90
9209;DHT22;4639;48.862;9.188;2023-02-28T04:05:29;-0.40;99.90
9209;DHT22;4639;48.862;9.188;2023-02-28T04:08:07;-0.40;99.90
9209;DHT22;4639;48.862;9.188;2023-02-28T04:10:33;-0.40;99.90
9209;DHT22;4639;48.862;9.188;2023-02-28T04:12:59;-0.40;99.90
9209;DHT22;4639;48.862;9.188;2023-02-28T04:15:24;-0.40;99.90
9209;DHT22;4639;48.862;9.188;2023-02-28T04:17:52;-0.40;99.90
9209;DHT22;4639;48.862;9.188;2023-02-28T04:20:18;-0.40;99.90
9209;DHT22;4639;48.862;9.188;2023-02-28T04:22:44;-0.40;99.90
9209;DHT22;4639;48.862;9.188;2023-02-28T04:25:10;-0.40;99.90
9209;DHT22;4639;48.862;9.188;2023-02-28T04:27:35;-0.40;99.90
9209;DHT22;4639;48.862;9.188;2023-02-28T04:30:01;-0.40;99.90
9209;DHT22;4639;48.862;9.188;2023-02-28T04:32:27;-0.40;99.90
9209;DHT22;4639;48.862;9.188;2023-02-28T04:34:52;-0.30;99.90
9209;DHT22;4639;48.862;9.188;2023-02-28T04:37:18;-0.30;99.90
9209;DHT22;4639;48.862;9.188;2023-02-28T04:39:44;-0.30;99.90
9209;DHT22;4639;48.862;9.188;2023-02-28T04:42:10;-0.30;99.90
9209;DHT22;4639;48.862;9.188;2023-02-28T04:44:36;-0.20;99.90
9209;DHT22;4639;48.862;9.188;2023-02-28T04:47:01;-0.20;99.90
9209;DHT22;4639;48.862;9.188;2023-02-28T04:49:27;-0.20;99.90
9209;DHT22;4639;48.862;9.188;2023-02-28T04:51:52;-0.30;99.90
9209;DHT22;4639;48.862;9.188;2023-02-28T04:54:18;-0.20;99.90
9209;DHT22;4639;48.862;9.188;2023-02-28T04:56:44;-0.10;99.90
9209;DHT22;4639;48.862;9.188;2023-02-28T04:59:09;-0.20;99.90
9209;DHT22;4639;48.862;9.188;2023-02-28T05:01:35;-0.20;99.90
9209;DHT22;4639;48.862;9.188;2023-02-28T05:04:03;-0.30;99.90
9209;DHT22;4639;48.862;9.188;2023-02-28T05:06:30;-0.20;99.90
9209;DHT22;4639;48.862;9.188;2023-02-28T05:08:56;-0.30;99.90
9209;DHT22;4639;48.862;9.188;2023-02-28T05:11:28;-0.30;99.90
9209;DHT22;4639;48.862;9.188;2023-02-28T05:13:54;-0.20;99.90
9209;DHT22;4639;48.862;9.188;2023-02-28T05:16:20;-0.20;99.90
9209;DHT22;4639;48.862;9.188;2023-02-28T05:18:47;-0.20;99.90
9209;DHT22;4639;48.862;9.188;2023-02-28T05:21:23;-0.10;99.90
9209;DHT22;4639;48.862;9.188;2023-02-28T05:23:49;-0.10;99.90
9209;DHT22;4639;48.862;9.188;2023-02-28T05:26:15;-0.20;99.90
9209;DHT22;4639;48.862;9.188;2023-02-28T05:28:40;-0.20;99.90
9209;DHT22;4639;48.862;9.188;2023-02-28T05:31:07;-0.10;99.90
9209;DHT22;4639;48.862;9.188;2023-02-28T05:33:33;-0.20;99.90
9209;DHT22;4639;48.862;9.188;2023-02-28T05:35:58;-0.20;99.90
9209;DHT22;4639;48.862;9.188;2023-02-28T05:38:24;-0.20;99.90
9209;DHT22;4639;48.862;9.188;2023-02-28T05:40:49;-0.20;99.90
9209;DHT22;4639;48.862;9.188;2023-02-28T05:43:15;-0.20;99.90
9209;DHT22;4639;48.862;9.188;2023-02-28T05:45:40;-0.10;99.90
9209;DHT22;4639;48.862;9.188;2023-02-28T05:48:07;-0.10;99.90
9209;DHT22;4639;48.862;9.188;2023-02-28T05:50:33;-0.10;99.90
9209;DHT22;4639;48.862;9.188;2023-02-28T05:52:58;-0.20;99.90
9209;DHT22;4639;48.862;9.188;2023-02-28T05:55:24;-0.10;99.90
9209;DHT22;4639;48.862;9.188;2023-02-28T05:57:50;-0.10;99.90
9209;DHT22;4639;48.862;9.188;2023-02-28T06:00:15;-0.10;99.90
9209;DHT22;4639;48.862;9.188;2023-02-28T06:02:43;-0.10;99.90
9209;DHT22;4639;48.862;9.188;2023-02-28T06:05:17;-0.20;99.90
9209;DHT22;4639;48.862;9.188;2023-02-28T06:07:43;-0.20;99.90
9209;DHT22;4639;48.862;9.188;2023-02-28T06:10:11;-0.20;99.90
9209;DHT22;4639;48.862;9.188;2023-02-28T06:12:37;0.00;99.90
9209;DHT22;4639;48.862;9.188;2023-02-28T06:15:03;0.00;99.90
9209;DHT22;4639;48.862;9.188;2023-02-28T06:17:29;0.00;99.90
9209;DHT22;4639;48.862;9.188;2023-02-28T06:19:54;0.00;99.90
9209;DHT22;4639;48.862;9.188;2023-02-28T06:22:20;0.00;99.90
9209;DHT22;4639;48.862;9.188;2023-02-28T06:24:46;0.00;99.90
9209;DHT22;4639;48.862;9.188;2023-02-28T06:27:11;0.00;99.90
9209;DHT22;4639;48.862;9.188;2023-02-28T06:29:37;0.00;99.90
9209;DHT22;4639;48.862;9.188;2023-02-28T06:32:05;0.00;99.90
9209;DHT22;4639;48.862;9.188;2023-02-28T06:34:31;0.00;99.90
9209;DHT22;4639;48.862;9.188;2023-02-28T06:36:56;0.00;99.90
9209;DHT22;4639;48.862;9.188;2023-02-28T06:39:22;0.10;99.90
9209;DHT22;4639;48.862;9.188;2023-02-28T06:41:47;0.00;99.90
9209;DHT22;4639;48.862;9.188;2023-02-28T06:44:15;0.00;99.90
9209;DHT22;4639;48.862;9.188;2023-02-28T06:46:43;0.00;99.90
9209;DHT22;4639;48.862;9.188;2023-02-28T06:49:09;0.00;99.90
9209;DHT22;4639;48.862;9.188;2023-02-28T06:51:36;0.00;99.90
9209;DHT22;4639;48.862;9.188;2023-02-28T06:54:03;0.10;99.90
9209;DHT22;4639;48.862;9.188;2023-02-28T06:56:29;0.20;99.90
9209;DHT22;4639;48.862;9.188;2023-02-28T06:58:54;0.20;99.90
9209;DHT22;4639;48.862;9.188;2023-02-28T07:01:21;0.20;99.90
9209;DHT22;4639;48.862;9.188;2023-02-28T07:03:50;0.20;99.90
9209;DHT22;4639;48.862;9.188;2023-02-28T07:06:18;0.30;99.90
9209;DHT22;4639;48.862;9.188;2023-02-28T07:08:44;0.30;99.90
9209;DHT22;4639;48.862;9.188;2023-02-28T07:11:09;0.30;99.90
9209;DHT22;4639;48.862;9.188;2023-02-28T07:13:36;0.20;99.90
9209;DHT22;4639;48.862;9.188;2023-02-28T07:16:06;0.30;99.90
9209;DHT22;4639;48.862;9.188;2023-02-28T07:18:33;0.20;99.90
9209;DHT22;4639;48.862;9.188;2023-02-28T07:21:02;0.20;99.90
9209;DHT22;4639;48.862;9.188;2023-02-28T07:23:28;0.20;99.90
9209;DHT22;4639;48.862;9.188;2023-02-28T07:25:53;0.20;99.90
9209;DHT22;4639;48.862;9.188;2023-02-28T07:28:19;0.20;99.90
9209;DHT22;4639;48.862;9.188;2023-02-28T07:30:44;0.10;99.90
9209;DHT22;4639;48.862;9.188;2023-02-28T07:33:10;0.10;99.90
9209;DHT22;4639;48.862;9.188;2023-02-28T07:35:35;0.20;99.90
9209;DHT22;4639;48.862;9.188;2023-02-28T07:38:01;0.20;99.90
9209;DHT22;4639;48.862;9.188;2023-02-28T07:40:28;0.10;99.90
9209;DHT22;4639;48.862;9.188;2023-02-28T07:42:53;0.20;99.90
9209;DHT22;4639;48.862;9.188;2023-02-28T07:45:19;0.20;99.90
9209;DHT22;4639;48.862;9.188;2023-02-28T07:47:45;0.30;99.90
9209;DHT22;4639;48.862;9.188;2023-02-28T07:50:14;0.30;99.90
9209;DHT22;4639;48.862;9.188;2023-02-28T07:52:40;0.40;99.90
9209;DHT22;4639;48.862;9.188;2023-02-28T07:55:08;0.40;99.90
9209;DHT22;4639;48.862;9.188;2023-02-28T07:57:34;0.40;99.90
9209;DHT22;4639;48.862;9.188;2023-02-28T08:00:00;0.30;99.90
9209;DHT22;4639;48.862;9.188;2023-02-28T08:02:29;0.40;99.90
9209;DHT22;4639;48.862;9.188;2023-02-28T08:04:55;0.30;99.90
9209;DHT22;4639;48.862;9.188;2023-02-28T08:07:21;0.30;99.90
9209;DHT22;4639;48.862;9.188;2023-02-28T08:09:46;0.30;99.90
9209;DHT22;4639;48.862;9.188;2023-02-28T08:12:12;0.40;99.90
9209;DHT22;4639;48.862;9.188;2023-02-28T08:14:38;0.40;99.90
9209;DHT22;4639;48.862;9.188;2023-02-28T08:17:05;0.40;99.90
9209;DHT22;4639;48.862;9.188;2023-02-28T08:19:31;0.40;99.90
9209;DHT22;4639;48.862;9.188;2023-02-28T08:21:57;0.50;99.90
9209;DHT22;4639;48.862;9.188;2023-02-28T08:24:23;0.50;99.90
9209;DHT22;4639;48.862;9.188;2023-02-28T08:26:49;0.50;99.90
9209;DHT22;4639;48.862;9.188;2023-02-28T08:29:14;0.50;99.90
9209;DHT22;4639;48.862;9.188;2023-02-28T08:31:41;0.50;99.90
9209;DHT22;4639;48.862;9.188;2023-02-28T08:34:07;0.50;99.90
9209;DHT22;4639;48.862;9.188;2023-02-28T08:36:33;0.50;99.90
9209;DHT22;4639;48.862;9.188;2023-02-28T08:38:59;0.50;99.90
9209;DHT22;4639;48.862;9.188;2023-02-28T08:41:25;0.60;99.90
9209;DHT22;4639;48.862;9.188;2023-02-28T08:43:51;0.60;99.90
9209;DHT22;4639;48.862;9.188;2023-02-28T08:46:17;0.70;99.90
9209;DHT22;4639;48.862;9.188;2023-02-28T08:48:43;0.80;99.90
9209;DHT22;4639;48.862;9.188;2023-02-28T08:51:14;0.80;99.90
9209;DHT22;4639;48.862;9.188;2023-02-28T08:53:41;0.90;99.90
9209;DHT22;4639;48.862;9.188;2023-02-28T08:56:10;1.00;99.90
9209;DHT22;4639;48.862;9.188;2023-02-28T08:58:36;1.10;99.90
9209;DHT22;4639;48.862;9.188;2023-02-28T09:01:12;1.10;99.90
9209;DHT22;4639;48.862;9.188;2023-02-28T09:03:38;1.20;99.90
9209;DHT22;4639;48.862;9.188;2023-02-28T09:06:04;1.20;99.90
9209;DHT22;4639;48.862;9.188;2023-02-28T09:08:30;1.10;99.90
9209;DHT22;4639;48.862;9.188;2023-02-28T09:10:57;1.10;99.90
9209;DHT22;4639;48.862;9.188;2023-02-28T09:13:24;1.20;99.90
9209;DHT22;4639;48.862;9.188;2023-02-28T09:15:50;1.20;99.90
9209;DHT22;4639;48.862;9.188;2023-02-28T09:18:16;1.30;99.90
9209;DHT22;4639;48.862;9.188;2023-02-28T09:20:42;1.30;99.90
9209;DHT22;4639;48.862;9.188;2023-02-28T09:23:10;1.40;99.90
9209;DHT22;4639;48.862;9.188;2023-02-28T09:25:36;1.40;99.90
9209;DHT22;4639;48.862;9.188;2023-02-28T09:28:02;1.50;99.90
9209;DHT22;4639;48.862;9.188;2023-02-28T09:30:29;1.60;99.90
9209;DHT22;4639;48.862;9.188;2023-02-28T09:32:55;1.60;99.90
9209;DHT22;4639;48.862;9.188;2023-02-28T09:35:21;1.60;99.90
9209;DHT22;4639;48.862;9.188;2023-02-28T09:37:51;1.80;99.90
9209;DHT22;4639;48.862;9.188;2023-02-28T09:40:19;1.90;99.90
9209;DHT22;4639;48.862;9.188;2023-02-28T09:42:47;2.00;99.90
9209;DHT22;4639;48.862;9.188;2023-02-28T09:45:29;2.00;99.90
9209;DHT22;4639;48.862;9.188;2023-02-28T09:48:00;2.00;99.90
9209;DHT22;4639;48.862;9.188;2023-02-28T09:50:30;2.00;99.90
9209;DHT22;4639;48.862;9.188;2023-02-28T09:53:02;2.00;99.90
9209;DHT22;4639;48.862;9.188;2023-02-28T09:55:39;2.10;99.90
9209;DHT22;4639;48.862;9.188;2023-02-28T10:01:09;2.10;99.90
9209;DHT22;4639;48.862;9.188;2023-02-28T10:03:39;2.10;99.90
9209;DHT22;4639;48.862;9.188;2023-02-28T10:06:11;2.20;99.90
9209;DHT22;4639;48.862;9.188;2023-02-28T10:08:45;2.20;99.90
9209;DHT22;4639;48.862;9.188;2023-02-28T10:11:16;2.20;99.90
9209;DHT22;4639;48.862;9.188;2023-02-28T10:14:00;2.20;99.90
9209;DHT22;4639;48.862;9.188;2023-02-28T10:16:54;2.30;99.90
9209;DHT22;4639;48.862;9.188;2023-02-28T10:19:28;2.40;99.90
9209;DHT22;4639;48.862;9.188;2023-02-28T10:24:33;2.60;99.90
9209;DHT22;4639;48.862;9.188;2023-02-28T10:27:15;2.70;99.90
9209;DHT22;4639;48.862;9.188;2023-02-28T10:29:46;2.80;99.90
9209;DHT22;4639;48.862;9.188;2023-02-28T10:32:23;2.90;99.90
9209;DHT22;4639;48.862;9.188;2023-02-28T10:34:57;2.90;99.90
9209;DHT22;4639;48.862;9.188;2023-02-28T10:37:22;2.90;99.90
9209;DHT22;4639;48.862;9.188;2023-02-28T10:39:48;2.90;99.90
9209;DHT22;4639;48.862;9.188;2023-02-28T10:42:23;3.00;99.90
9209;DHT22;4639;48.862;9.188;2023-02-28T10:45:12;3.10;99.90
9209;DHT22;4639;48.862;9.188;2023-02-28T10:47:59;3.10;99.90
9209;DHT22;4639;48.862;9.188;2023-02-28T10:50:51;3.20;99.90
9209;DHT22;4639;48.862;9.188;2023-02-28T10:56:12;3.40;99.90
9209;DHT22;4639;48.862;9.188;2023-02-28T10:59:22;3.50;99.90
9209;DHT22;4639;48.862;9.188;2023-02-28T11:01:48;3.80;99.90
9209;DHT22;4639;48.862;9.188;2023-02-28T11:04:34;4.20;99.90
9209;DHT22;4639;48.862;9.188;2023-02-28T11:07:22;4.60;99.90
9209;DHT22;4639;48.862;9.188;2023-02-28T11:09:55;4.70;99.90
9209;DHT22;4639;48.862;9.188;2023-02-28T11:12:40;4.90;99.90
9209;DHT22;4639;48.862;9.188;2023-02-28T11:15:28;5.20;99.90
9209;DHT22;4639;48.862;9.188;2023-02-28T11:18:00;5.40;99.90
9209;DHT22;4639;48.862;9.188;2023-02-28T11:20:29;5.70;99.90
9209;DHT22;4639;48.862;9.188;2023-02-28T11:22:57;6.00;99.90
9209;DHT22;4639;48.862;9.188;2023-02-28T11:25:35;6.00;99.90
9209;DHT22;4639;48.862;9.188;2023-02-28T11:28:03;6.20;99.90
9209;DHT22;4639;48.862;9.188;2023-02-28T11:30:37;6.70;99.90
9209;DHT22;4639;48.862;9.188;2023-02-28T11:33:23;7.20;99.90
9209;DHT22;4639;48.862;9.188;2023-02-28T11:35:50;7.10;99.90
9209;DHT22;4639;48.862;9.188;2023-02-28T11:38:16;7.30;99.90
9209;DHT22;4639;48.862;9.188;2023-02-28T12:03:12;7.70;99.90
9209;DHT22;4639;48.862;9.188;2023-02-28T12:05:50;8.00;99.90
9209;DHT22;4639;48.862;9.188;2023-02-28T12:16:51;7.90;99.90
9209;DHT22;4639;48.862;9.188;2023-02-28T12:19:48;8.20;99.90
9209;DHT22;4639;48.862;9.188;2023-02-28T12:22:31;8.40;99.90
9209;DHT22;4639;48.862;9.188;2023-02-28T12:27:41;8.60;99.90
9209;DHT22;4639;48.862;9.188;2023-02-28T12:32:49;9.40;99.90
9209;DHT22;4639;48.862;9.188;2023-02-28T12:35:24;9.50;99.90
9209;DHT22;4639;48.862;9.188;2023-02-28T12:37:57;9.80;99.90
9209;DHT22;4639;48.862;9.188;2023-02-28T12:41:13;9.90;99.90
9209;DHT22;4639;48.862;9.188;2023-02-28T12:43:16;10.00;99.90
9209;DHT22;4639;48.862;9.188;2023-02-28T12:45:53;9.80;99.90
9209;DHT22;4639;48.862;9.188;2023-02-28T12:48:36;9.90;99.90
9209;DHT22;4639;48.862;9.188;2023-02-28T12:51:03;10.00;99.90
9209;DHT22;4639;48.862;9.188;2023-02-28T12:56:38;9.90;99.90
9209;DHT22;4639;48.862;9.188;2023-02-28T13:05:08;9.90;99.90
9209;DHT22;4639;48.862;9.188;2023-02-28T13:10:42;10.20;99.90
9209;DHT22;4639;48.862;9.188;2023-02-28T13:13:17;10.10;99.90
9209;DHT22;4639;48.862;9.188;2023-02-28T13:16:04;10.20;99.90
9209;DHT22;4639;48.862;9.188;2023-02-28T13:18:36;10.10;99.90
9209;DHT22;4639;48.862;9.188;2023-02-28T13:21:04;9.70;99.90
9209;DHT22;4639;48.862;9.188;2023-02-28T13:23:41;9.60;99.90
9209;DHT22;4639;48.862;9.188;2023-02-28T13:26:22;9.50;99.90
9209;DHT22;4639;48.862;9.188;2023-02-28T13:34:32;9.30;99.90
9209;DHT22;4639;48.862;9.188;2023-02-28T13:39:53;9.40;99.90
9209;DHT22;4639;48.862;9.188;2023-02-28T13:45:19;9.60;99.90
9209;DHT22;4639;48.862;9.188;2023-02-28T13:47:52;9.70;99.90
9209;DHT22;4639;48.862;9.188;2023-02-28T13:50:38;9.70;99.90
9209;DHT22;4639;48.862;9.188;2023-02-28T13:53:27;9.50;99.90
9209;DHT22;4639;48.862;9.188;2023-02-28T13:56:04;9.30;99.90
9209;DHT22;4639;48.862;9.188;2023-02-28T13:59:23;9.20;99.90
9209;DHT22;4639;48.862;9.188;2023-02-28T14:07:21;9.70;99.90
9209;DHT22;4639;48.862;9.188;2023-02-28T14:10:00;9.50;99.90
9209;DHT22;4639;48.862;9.188;2023-02-28T14:12:53;9.40;99.90
9209;DHT22;4639;48.862;9.188;2023-02-28T14:15:34;9.20;99.90
9209;DHT22;4639;48.862;9.188;2023-02-28T14:18:03;9.10;99.90
9209;DHT22;4639;48.862;9.188;2023-02-28T14:20:31;9.10;99.90
9209;DHT22;4639;48.862;9.188;2023-02-28T14:26:01;9.30;99.90
9209;DHT22;4639;48.862;9.188;2023-02-28T14:31:13;9.70;99.90
9209;DHT22;4639;48.862;9.188;2023-02-28T14:36:31;9.90;99.90
9209;DHT22;4639;48.862;9.188;2023-02-28T14:39:01;9.90;99.90
9209;DHT22;4639;48.862;9.188;2023-02-28T14:41:32;9.90;99.90
9209;DHT22;4639;48.862;9.188;2023-02-28T14:44:12;10.00;99.90
9209;DHT22;4639;48.862;9.188;2023-02-28T14:46:40;10.00;99.90
9209;DHT22;4639;48.862;9.188;2023-02-28T14:49:16;10.10;99.90
9209;DHT22;4639;48.862;9.188;2023-02-28T14:51:42;10.10;99.90
9209;DHT22;4639;48.862;9.188;2023-02-28T14:54:14;10.10;99.90
9209;DHT22;4639;48.862;9.188;2023-02-28T14:56:40;10.20;99.90
9209;DHT22;4639;48.862;9.188;2023-02-28T14:59:26;10.00;99.90
9209;DHT22;4639;48.862;9.188;2023-02-28T15:01:52;10.00;99.90
9209;DHT22;4639;48.862;9.188;2023-02-28T15:04:26;10.00;99.90
9209;DHT22;4639;48.862;9.188;2023-02-28T15:07:09;9.90;99.90
9209;DHT22;4639;48.862;9.188;2023-02-28T15:09:35;9.90;99.90
9209;DHT22;4639;48.862;9.188;2023-02-28T15:12:01;9.90;99.90
9209;DHT22;4639;48.862;9.188;2023-02-28T15:14:27;9.80;99.90
9209;DHT22;4639;48.862;9.188;2023-02-28T15:16:58;9.60;99.90
9209;DHT22;4639;48.862;9.188;2023-02-28T15:19:34;9.70;99.90
9209;DHT22;4639;48.862;9.188;2023-02-28T15:22:08;10.00;99.90
9209;DHT22;4639;48.862;9.188;2023-02-28T15:24:48;10.10;99.90
9209;DHT22;4639;48.862;9.188;2023-02-28T15:27:35;10.20;99.90
9209;DHT22;4639;48.862;9.188;2023-02-28T15:30:08;10.10;99.90
9209;DHT22;4639;48.862;9.188;2023-02-28T15:32:38;10.00;99.90
9209;DHT22;4639;48.862;9.188;2023-02-28T15:38:12;9.90;99.90
9209;DHT22;4639;48.862;9.188;2023-02-28T15:40:46;9.70;99.90
9209;DHT22;4639;48.862;9.188;2023-02-28T15:43:30;9.50;99.90
9209;DHT22;4639;48.862;9.188;2023-02-28T15:46:06;9.10;99.90
9209;DHT22;4639;48.862;9.188;2023-02-28T15:48:42;9.00;99.90
9209;DHT22;4639;48.862;9.188;2023-02-28T15:51:16;8.90;99.90
9209;DHT22;4639;48.862;9.188;2023-02-28T15:58:48;8.70;99.90
9209;DHT22;4639;48.862;9.188;2023-02-28T16:01:29;8.70;99.90
9209;DHT22;4639;48.862;9.188;2023-02-28T16:04:01;8.50;99.90
9209;DHT22;4639;48.862;9.188;2023-02-28T16:09:03;8.50;99.90
9209;DHT22;4639;48.862;9.188;2023-02-28T16:11:29;8.50;99.90
9209;DHT22;4639;48.862;9.188;2023-02-28T16:13:56;8.40;99.90
9209;DHT22;4639;48.862;9.188;2023-02-28T16:16:24;8.50;99.90
9209;DHT22;4639;48.862;9.188;2023-02-28T16:18:50;8.10;99.90
9209;DHT22;4639;48.862;9.188;2023-02-28T16:21:16;8.00;99.90
9209;DHT22;4639;48.862;9.188;2023-02-28T16:23:42;7.90;99.90
9209;DHT22;4639;48.862;9.188;2023-02-28T16:26:08;7.70;99.90
9209;DHT22;4639;48.862;9.188;2023-02-28T16:28:36;7.60;99.90
9209;DHT22;4639;48.862;9.188;2023-02-28T16:31:05;7.50;99.90
9209;DHT22;4639;48.862;9.188;2023-02-28T16:33:32;7.40;99.90
9209;DHT22;4639;48.862;9.188;2023-02-28T16:35:58;7.20;99.90
9209;DHT22;4639;48.862;9.188;2023-02-28T16:38:23;7.10;99.90
9209;DHT22;4639;48.862;9.188;2023-02-28T16:40:51;7.10;99.90
9209;DHT22;4639;48.862;9.188;2023-02-28T16:43:23;7.00;99.90
9209;DHT22;4639;48.862;9.188;2023-02-28T16:45:57;6.90;99.90
9209;DHT22;4639;48.862;9.188;2023-02-28T16:48:24;7.00;99.90
9209;DHT22;4639;48.862;9.188;2023-02-28T16:50:50;6.70;99.90
9209;DHT22;4639;48.862;9.188;2023-02-28T16:53:16;6.40;99.90
9209;DHT22;4639;48.862;9.188;2023-02-28T16:55:42;6.20;99.90
9209;DHT22;4639;48.862;9.188;2023-02-28T16:58:14;6.10;99.90
9209;DHT22;4639;48.862;9.188;2023-02-28T17:00:40;6.00;99.90
9209;DHT22;4639;48.862;9.188;2023-02-28T17:03:24;5.90;99.90
9209;DHT22;4639;48.862;9.188;2023-02-28T17:05:50;5.70;99.90
9209;DHT22;4639;48.862;9.188;2023-02-28T17:08:16;5.70;99.90
9209;DHT22;4639;48.862;9.188;2023-02-28T17:10:42;5.60;99.90
9209;DHT22;4639;48.862;9.188;2023-02-28T17:13:07;5.40;99.90
9209;DHT22;4639;48.862;9.188;2023-02-28T17:15:33;5.40;99.90
9209;DHT22;4639;48.862;9.188;2023-02-28T17:17:59;5.30;99.90
9209;DHT22;4639;48.862;9.188;2023-02-28T17:20:25;5.30;99.90
9209;DHT22;4639;48.862;9.188;2023-02-28T17:22:52;5.10;99.90
9209;DHT22;4639;48.862;9.188;2023-02-28T17:25:19;5.10;99.90
9209;DHT22;4639;48.862;9.188;2023-02-28T17:27:44;5.10;99.90
9209;DHT22;4639;48.862;9.188;2023-02-28T17:30:24;5.00;99.90
9209;DHT22;4639;48.862;9.188;2023-02-28T17:32:55;4.90;99.90
9209;DHT22;4639;48.862;9.188;2023-02-28T17:35:22;4.90;99.90
9209;DHT22;4639;48.862;9.188;2023-02-28T17:37:48;4.80;99.90
9209;DHT22;4639;48.862;9.188;2023-02-28T17:40:19;4.80;99.90
9209;DHT22;4639;48.862;9.188;2023-02-28T17:42:44;4.80;99.90
9209;DHT22;4639;48.862;9.188;2023-02-28T17:45:12;4.70;99.90
9209;DHT22;4639;48.862;9.188;2023-02-28T17:47:38;4.70;99.90
9209;DHT22;4639;48.862;9.188;2023-02-28T17:50:04;4.60;99.90
9209;DHT22;4639;48.862;9.188;2023-02-28T17:52:30;4.60;99.90
9209;DHT22;4639;48.862;9.188;2023-02-28T17:54:56;4.50;99.90
9209;DHT22;4639;48.862;9.188;2023-02-28T17:57:21;4.50;99.90
9209;DHT22;4639;48.862;9.188;2023-02-28T17:59:47;4.50;99.90
9209;DHT22;4639;48.862;9.188;2023-02-28T18:02:13;4.40;99.90
9209;DHT22;4639;48.862;9.188;2023-02-28T18:04:39;4.40;99.90
9209;DHT22;4639;48.862;9.188;2023-02-28T18:07:06;4.40;99.90
9209;DHT22;4639;48.862;9.188;2023-02-28T18:09:33;4.30;99.90
9209;DHT22;4639;48.862;9.188;2023-02-28T18:11:59;4.30;99.90
9209;DHT22;4639;48.862;9.188;2023-02-28T18:14:25;4.30;99.90
9209;DHT22;4639;48.862;9.188;2023-02-28T18:16:52;4.20;99.90
9209;DHT22;4639;48.862;9.188;2023-02-28T18:19:18;4.20;99.90
9209;DHT22;4639;48.862;9.188;2023-02-28T18:21:47;4.30;99.90
9209;DHT22;4639;48.862;9.188;2023-02-28T18:24:14;4.20;99.90
9209;DHT22;4639;48.862;9.188;2023-02-28T18:26:41;4.20;99.90
9209;DHT22;4639;48.862;9.188;2023-02-28T18:29:08;4.10;99.90
9209;DHT22;4639;48.862;9.188;2023-02-28T18:31:34;4.10;99.90
9209;DHT22;4639;48.862;9.188;2023-02-28T18:34:00;4.10;99.90